createdAt,value
2017-09-24T00:01:10.340Z,84.80
2017-09-24T00:03:37.844Z,85.00
2017-09-24T00:06:05.341Z,85.40
2017-09-24T00:08:32.809Z,85.20
2017-09-24T00:11:01.079Z,85.50
2017-09-24T00:13:28.537Z,85.20
2017-09-24T00:15:56.093Z,85.30
2017-09-24T00:18:24.326Z,85.70
2017-09-24T00:20:51.800Z,85.60
2017-09-24T00:23:19.265Z,85.40
2017-09-24T00:25:46.725Z,85.40
2017-09-24T00:28:14.184Z,85.80
2017-09-24T00:30:41.655Z,85.80
2017-09-24T00:33:09.114Z,85.80
2017-09-24T00:35:36.586Z,85.90
2017-09-24T00:38:04.838Z,85.80
2017-09-24T00:40:32.299Z,85.70
2017-09-24T00:42:59.854Z,85.70
2017-09-24T00:45:27.418Z,85.60
2017-09-24T00:47:54.969Z,85.50
2017-09-24T00:50:22.431Z,85.60
2017-09-24T00:52:49.898Z,85.50
2017-09-24T00:55:18.121Z,86.10
2017-09-24T00:57:45.582Z,85.90
2017-09-24T01:00:13.064Z,86.00
2017-09-24T01:02:40.525Z,86.00
2017-09-24T01:05:07.985Z,86.10
2017-09-24T01:07:35.463Z,86.10
2017-09-24T01:10:03.696Z,85.60
2017-09-24T01:12:31.158Z,85.60
2017-09-24T01:14:58.688Z,86.10
2017-09-24T01:17:26.249Z,86.10
2017-09-24T01:19:53.706Z,86.20
2017-09-24T01:22:21.207Z,85.90
2017-09-24T01:24:48.660Z,85.80
2017-09-24T01:27:16.893Z,86.00
2017-09-24T01:29:44.374Z,86.10
2017-09-24T01:32:11.953Z,86.30
2017-09-24T01:34:39.404Z,86.00
2017-09-24T01:37:06.879Z,86.00
2017-09-24T01:39:35.113Z,86.30
2017-09-24T01:42:02.570Z,86.20
2017-09-24T01:44:30.050Z,86.50
2017-09-24T01:46:57.516Z,86.60
2017-09-24T01:49:25.742Z,86.50
2017-09-24T01:51:53.240Z,86.40
2017-09-24T01:54:20.701Z,87.40
2017-09-24T01:56:48.164Z,86.60
2017-09-24T01:59:15.705Z,86.40
2017-09-24T02:01:43.164Z,86.50
2017-09-24T02:04:10.629Z,86.30
2017-09-24T02:06:38.088Z,86.70
2017-09-24T02:09:05.548Z,87.10
2017-09-24T02:11:33.780Z,87.50
2017-09-24T02:14:01.240Z,86.90
2017-09-24T02:16:28.704Z,86.70
2017-09-24T02:18:56.193Z,86.90
2017-09-24T02:21:23.746Z,86.90
2017-09-24T02:23:51.204Z,86.20
2017-09-24T02:26:18.661Z,87.00
2017-09-24T02:28:46.151Z,87.10
2017-09-24T02:31:13.830Z,86.90
2017-09-24T02:33:41.293Z,87.10
2017-09-24T02:36:08.758Z,87.50
2017-09-24T02:38:36.260Z,87.30
2017-09-24T02:41:04.518Z,87.80
2017-09-24T02:43:32.091Z,87.80
2017-09-24T02:46:00.330Z,87.80
2017-09-24T02:48:27.799Z,87.80
2017-09-24T02:50:55.260Z,87.80
2017-09-24T02:53:22.721Z,87.70
2017-09-24T02:55:50.194Z,87.80
2017-09-24T02:58:18.420Z,87.50
2017-09-24T03:00:45.942Z,87.50
2017-09-24T03:03:13.396Z,87.80
2017-09-24T03:05:40.917Z,88.30
2017-09-24T03:08:08.376Z,88.30
2017-09-24T03:10:35.832Z,88.30
2017-09-24T03:13:03.395Z,88.30
2017-09-24T03:15:30.891Z,88.10
2017-09-24T03:17:58.362Z,88.10
2017-09-24T03:20:25.825Z,88.20
2017-09-24T03:22:53.379Z,88.10
2017-09-24T03:25:20.846Z,88.30
2017-09-24T03:27:48.297Z,88.30
2017-09-24T03:30:15.766Z,88.00
2017-09-24T03:32:43.216Z,87.70
2017-09-24T03:35:10.695Z,87.50
2017-09-24T03:37:38.149Z,87.70
2017-09-24T03:40:05.622Z,87.90
2017-09-24T03:42:33.081Z,87.90
2017-09-24T03:45:00.538Z,87.80
2017-09-24T03:47:28.001Z,88.30
2017-09-24T03:49:56.238Z,88.20
2017-09-24T03:52:23.696Z,88.10
2017-09-24T03:54:51.177Z,88.20
2017-09-24T03:57:18.741Z,88.10
2017-09-24T03:59:46.201Z,88.30
2017-09-24T04:02:13.705Z,88.20
2017-09-24T04:04:41.185Z,88.20
2017-09-24T04:07:08.640Z,87.90
2017-09-24T04:09:36.101Z,87.50
2017-09-24T04:12:03.685Z,87.50
2017-09-24T04:14:31.241Z,87.70
2017-09-24T04:16:58.800Z,87.80
2017-09-24T04:19:26.257Z,87.90
2017-09-24T04:21:53.726Z,87.90
2017-09-24T04:24:21.982Z,88.10
2017-09-24T04:26:49.498Z,88.10
2017-09-24T04:29:17.006Z,88.30
2017-09-24T04:31:44.563Z,88.30
2017-09-24T04:34:12.024Z,88.10
2017-09-24T04:36:39.533Z,88.00
2017-09-24T04:39:07.032Z,88.00
2017-09-24T04:41:34.600Z,87.80
2017-09-24T04:44:02.873Z,87.70
2017-09-24T04:46:30.377Z,87.80
2017-09-24T04:48:57.837Z,87.90
2017-09-24T04:51:25.295Z,88.10
2017-09-24T04:53:52.850Z,89.90
2017-09-24T04:56:20.329Z,89.20
2017-09-24T04:58:48.556Z,88.20
2017-09-24T05:01:16.065Z,88.20
2017-09-24T05:03:43.532Z,88.30
2017-09-24T05:06:11.101Z,88.20
2017-09-24T05:08:38.662Z,88.10
2017-09-24T05:11:06.116Z,88.60
2017-09-24T05:13:33.688Z,88.50
2017-09-24T05:16:01.912Z,88.60
2017-09-24T05:18:29.390Z,88.60
2017-09-24T05:20:56.848Z,88.50
2017-09-24T05:23:24.316Z,88.60
2017-09-24T05:25:51.786Z,88.60
2017-09-24T05:28:20.110Z,88.50
2017-09-24T05:30:47.621Z,88.50
2017-09-24T05:33:15.862Z,88.90
2017-09-24T05:35:43.329Z,88.40
2017-09-24T05:38:10.793Z,88.60
2017-09-24T05:40:38.262Z,88.50
2017-09-24T05:43:05.808Z,88.50
2017-09-24T05:45:33.368Z,88.60
2017-09-24T05:48:00.836Z,88.60
2017-09-24T05:50:28.307Z,88.60
2017-09-24T05:52:56.561Z,88.60
2017-09-24T05:55:24.108Z,88.50
2017-09-24T05:57:51.600Z,88.50
2017-09-24T06:00:19.850Z,88.30
2017-09-24T06:02:47.412Z,88.20
2017-09-24T06:05:14.881Z,88.20
2017-09-24T06:07:43.106Z,88.30
2017-09-24T06:10:11.113Z,88.20
2017-09-24T06:12:38.575Z,88.20
2017-09-24T06:15:06.033Z,88.00
2017-09-24T06:17:34.301Z,88.20
2017-09-24T06:20:01.770Z,88.00
2017-09-24T06:22:30.128Z,88.30
2017-09-24T06:24:57.747Z,88.30
2017-09-24T06:27:25.260Z,88.40
2017-09-24T06:29:53.536Z,88.70
2017-09-24T06:32:21.797Z,88.80
2017-09-24T06:34:49.312Z,88.80
2017-09-24T06:37:16.788Z,88.30
2017-09-24T06:39:44.261Z,88.10
2017-09-24T06:42:11.832Z,88.30
2017-09-24T06:44:39.300Z,88.40
2017-09-24T06:47:07.550Z,89.20
2017-09-24T06:49:35.121Z,88.20
2017-09-24T06:52:03.360Z,87.70
2017-09-24T06:54:30.843Z,87.60
2017-09-24T06:56:58.436Z,87.50
2017-09-24T06:59:26.676Z,87.30
2017-09-24T07:01:54.145Z,87.20
2017-09-24T07:04:21.701Z,87.30
2017-09-24T07:06:49.276Z,88.40
2017-09-24T07:09:16.822Z,87.70
2017-09-24T07:11:44.301Z,87.80
2017-09-24T07:14:12.537Z,88.10
2017-09-24T07:16:40.010Z,87.90
2017-09-24T07:19:07.486Z,88.10
2017-09-24T07:21:35.724Z,88.10
2017-09-24T07:24:03.219Z,88.10
2017-09-24T07:26:31.457Z,88.30
2017-09-24T07:28:58.934Z,88.30
2017-09-24T07:31:26.433Z,88.10
2017-09-24T07:33:53.902Z,88.10
2017-09-24T07:36:21.384Z,87.90
2017-09-24T07:38:48.953Z,88.10
2017-09-24T07:41:16.422Z,88.20
2017-09-24T07:43:43.907Z,88.30
2017-09-24T07:46:12.150Z,88.70
2017-09-24T07:48:40.563Z,89.60
2017-09-24T07:51:08.033Z,88.80
2017-09-24T07:53:35.508Z,88.90
2017-09-24T07:56:02.999Z,88.80
2017-09-24T07:58:30.475Z,88.80
2017-09-24T08:00:57.978Z,88.90
2017-09-24T08:03:26.278Z,88.60
2017-09-24T08:05:53.801Z,88.50
2017-09-24T08:08:21.310Z,88.60
2017-09-24T08:10:48.919Z,88.40
2017-09-24T08:13:16.392Z,88.30
2017-09-24T08:15:43.875Z,88.40
2017-09-24T08:18:11.442Z,88.30
2017-09-24T08:20:38.918Z,88.00
2017-09-24T08:23:07.154Z,87.50
2017-09-24T08:25:34.624Z,87.50
2017-09-24T08:28:02.187Z,87.50
2017-09-24T08:30:29.737Z,87.60
2017-09-24T08:32:57.215Z,87.50
2017-09-24T08:35:25.452Z,87.50
2017-09-24T08:37:52.920Z,87.50
2017-09-24T08:40:20.398Z,87.40
2017-09-24T08:42:48.720Z,87.90
2017-09-24T08:45:16.189Z,87.80
2017-09-24T08:47:43.656Z,87.70
2017-09-24T08:50:11.133Z,87.40
2017-09-24T08:52:38.600Z,87.40
2017-09-24T08:55:06.836Z,87.60
2017-09-24T08:57:34.310Z,87.50
2017-09-24T09:00:01.897Z,88.30
2017-09-24T09:02:30.154Z,87.50
2017-09-24T09:04:57.669Z,87.40
2017-09-24T09:07:25.137Z,87.60
2017-09-24T09:09:52.625Z,87.60
2017-09-24T09:12:20.097Z,87.60
2017-09-24T09:14:48.353Z,88.10
2017-09-24T09:17:15.826Z,87.20
2017-09-24T09:19:44.073Z,87.10
2017-09-24T09:22:11.545Z,87.10
2017-09-24T09:24:39.016Z,86.80
2017-09-24T09:27:07.336Z,86.00
2017-09-24T09:29:34.796Z,86.00
2017-09-24T09:32:02.285Z,85.80
2017-09-24T09:34:33.392Z,85.40
2017-09-24T09:37:00.852Z,85.30
2017-09-24T09:39:28.318Z,85.70
2017-09-24T09:41:55.798Z,85.90
2017-09-24T09:44:35.239Z,86.40
2017-09-24T09:47:14.534Z,86.20
2017-09-24T09:49:42.001Z,86.00
2017-09-24T09:52:09.586Z,85.50
2017-09-24T09:54:37.049Z,86.20
2017-09-24T09:57:04.524Z,85.30
2017-09-24T09:59:31.999Z,84.80
2017-09-24T10:01:59.516Z,85.00
2017-09-24T10:04:26.976Z,85.00
2017-09-24T10:07:07.061Z,85.10
2017-09-24T10:09:47.278Z,85.00
2017-09-24T10:12:14.733Z,84.80
2017-09-24T10:14:42.201Z,85.30
2017-09-24T10:17:09.681Z,85.50
2017-09-24T10:19:37.917Z,85.00
2017-09-24T10:22:05.379Z,85.00
2017-09-24T10:24:32.953Z,85.00
2017-09-24T10:27:00.428Z,84.90
2017-09-24T10:29:29.394Z,85.10
2017-09-24T10:32:03.933Z,85.10
2017-09-24T10:34:32.194Z,84.40
2017-09-24T10:36:59.646Z,84.30
2017-09-24T10:39:27.213Z,84.20
2017-09-24T10:41:54.707Z,84.80
2017-09-24T10:44:22.226Z,85.20
2017-09-24T10:46:49.780Z,85.30
2017-09-24T10:49:17.252Z,84.80
2017-09-24T10:51:44.800Z,85.20
2017-09-24T10:54:12.264Z,85.00
2017-09-24T10:56:39.818Z,85.10
2017-09-24T10:59:07.426Z,85.90
2017-09-24T11:01:34.920Z,85.30
2017-09-24T11:04:02.396Z,85.10
2017-09-24T11:06:30.633Z,85.40
2017-09-24T11:08:58.121Z,84.80
2017-09-24T11:11:27.118Z,85.00
2017-09-24T11:13:56.098Z,85.00
2017-09-24T11:16:23.643Z,85.00
2017-09-24T11:18:51.232Z,84.90
2017-09-24T11:21:20.196Z,84.80
2017-09-24T11:23:47.677Z,84.80
2017-09-24T11:26:15.169Z,85.00
2017-09-24T11:28:42.739Z,86.00
2017-09-24T11:31:10.245Z,85.40
2017-09-24T11:33:41.235Z,85.00
2017-09-24T11:36:08.740Z,85.00
2017-09-24T11:38:37.016Z,85.20
2017-09-24T11:41:04.582Z,85.50
2017-09-24T11:43:32.046Z,85.30
2017-09-24T11:46:00.286Z,85.50
2017-09-24T11:48:27.750Z,85.40
2017-09-24T11:50:55.225Z,85.50
2017-09-24T11:53:22.688Z,85.80
2017-09-24T11:55:50.159Z,85.60
2017-09-24T11:58:18.463Z,85.30
2017-09-24T12:00:45.956Z,85.20
2017-09-24T12:03:13.534Z,85.40
2017-09-24T12:05:41.081Z,84.90
2017-09-24T12:08:08.540Z,84.80
2017-09-24T12:10:36.051Z,85.00
2017-09-24T12:13:03.542Z,85.10
2017-09-24T12:15:31.015Z,85.20
2017-09-24T12:17:58.464Z,85.50
2017-09-24T12:20:25.946Z,85.60
2017-09-24T12:22:54.173Z,85.90
2017-09-24T12:25:21.649Z,85.90
2017-09-24T12:27:49.134Z,85.80
2017-09-24T12:30:17.498Z,85.50
2017-09-24T12:32:44.956Z,85.30
2017-09-24T12:35:12.413Z,85.20
2017-09-24T12:37:39.917Z,85.70
2017-09-24T12:40:07.384Z,85.80
2017-09-24T12:42:34.860Z,85.80
2017-09-24T12:45:02.326Z,85.80
2017-09-24T12:47:29.797Z,85.90
2017-09-24T12:49:57.282Z,85.60
2017-09-24T12:52:24.744Z,85.30
2017-09-24T12:54:52.206Z,85.40
2017-09-24T12:57:19.689Z,85.60
2017-09-24T12:59:47.153Z,85.60
2017-09-24T13:02:14.666Z,85.20
2017-09-24T13:04:42.125Z,85.50
2017-09-24T13:07:09.629Z,85.20
2017-09-24T13:09:37.103Z,85.00
2017-09-24T13:12:04.666Z,84.70
2017-09-24T13:14:32.172Z,84.80
2017-09-24T13:17:00.010Z,84.70
2017-09-24T13:19:27.498Z,84.70
2017-09-24T13:21:54.988Z,84.70
2017-09-24T13:24:22.576Z,84.60
2017-09-24T13:26:50.838Z,84.80
2017-09-24T13:29:19.068Z,84.70
2017-09-24T13:31:46.590Z,84.70
2017-09-24T13:34:14.845Z,85.00
2017-09-24T13:36:42.330Z,85.00
2017-09-24T13:39:09.844Z,84.80
2017-09-24T13:41:37.329Z,84.80
2017-09-24T13:44:05.566Z,85.00
2017-09-24T13:46:33.040Z,84.90
2017-09-24T13:49:02.015Z,84.70
2017-09-24T13:51:29.490Z,84.70
2017-09-24T13:53:56.973Z,84.60
2017-09-24T13:56:25.219Z,84.60
2017-09-24T13:58:52.677Z,84.60
2017-09-24T14:01:20.144Z,85.00
2017-09-24T14:03:47.638Z,85.20
2017-09-24T14:06:15.092Z,85.30
2017-09-24T14:08:42.560Z,85.40
2017-09-24T14:11:10.097Z,85.30
2017-09-24T14:13:37.594Z,85.50
2017-09-24T14:16:05.052Z,85.30
2017-09-24T14:18:32.533Z,85.60
2017-09-24T14:21:00.004Z,85.60
2017-09-24T14:23:28.233Z,85.90
2017-09-24T14:25:55.735Z,85.80
2017-09-24T14:28:23.970Z,85.80
2017-09-24T14:30:51.438Z,85.80
2017-09-24T14:33:18.933Z,85.50
2017-09-24T14:35:47.183Z,81.00
2017-09-24T14:38:14.655Z,81.60
2017-09-24T14:40:42.146Z,78.60
2017-09-24T14:43:09.662Z,76.30
2017-09-24T14:45:37.236Z,73.50
2017-09-24T14:48:05.516Z,70.40
2017-09-24T14:50:33.832Z,66.80
2017-09-24T14:53:01.329Z,66.70
2017-09-24T14:55:28.948Z,67.20
2017-09-24T14:57:56.448Z,66.00
2017-09-24T15:00:23.925Z,64.20
2017-09-24T15:02:52.200Z,60.30
2017-09-24T15:05:20.467Z,61.80
2017-09-24T15:07:48.697Z,59.90
2017-09-24T15:10:16.174Z,59.80
2017-09-24T15:12:43.642Z,58.60
2017-09-24T15:15:11.121Z,58.10
2017-09-24T15:17:40.658Z,58.70
2017-09-24T15:20:08.162Z,58.60
2017-09-24T15:22:35.636Z,58.00
2017-09-24T15:25:03.921Z,57.30
2017-09-24T15:27:32.162Z,57.20
2017-09-24T15:30:01.160Z,56.30
2017-09-24T15:32:30.207Z,56.30
2017-09-24T15:34:57.668Z,56.20
2017-09-24T15:37:25.173Z,56.40
2017-09-24T15:39:52.689Z,56.40
2017-09-24T15:42:20.159Z,56.80
2017-09-24T15:44:47.641Z,57.40
2017-09-24T15:47:15.110Z,58.70
2017-09-24T15:49:42.593Z,58.30
2017-09-24T15:52:10.065Z,59.50
2017-09-24T15:54:37.524Z,59.20
2017-09-24T15:57:05.021Z,58.90
2017-09-24T15:59:32.591Z,58.60
2017-09-24T16:02:00.066Z,59.40
2017-09-24T16:04:28.333Z,60.50
2017-09-24T16:06:56.584Z,59.70
2017-09-24T16:09:24.104Z,59.70
2017-09-24T16:11:51.579Z,60.20
2017-09-24T16:14:19.048Z,60.60
2017-09-24T16:16:46.527Z,60.60
2017-09-24T16:19:14.133Z,61.70
2017-09-24T16:21:41.601Z,62.50
2017-09-24T16:24:09.100Z,63.70
2017-09-24T16:26:36.583Z,64.60
2017-09-24T16:29:04.809Z,66.60
2017-09-24T16:31:32.286Z,66.60
2017-09-24T16:33:59.757Z,68.00
2017-09-24T16:36:27.978Z,70.00
2017-09-24T16:38:55.455Z,69.90
2017-09-24T16:41:23.026Z,70.50
2017-09-24T16:43:50.936Z,70.90
2017-09-24T16:46:18.440Z,71.60
2017-09-24T16:48:46.737Z,72.40
2017-09-24T16:51:14.214Z,72.80
2017-09-24T16:53:42.552Z,74.20
2017-09-24T16:56:10.081Z,73.40
2017-09-24T16:58:37.560Z,74.10
2017-09-24T17:01:05.026Z,74.30
2017-09-24T17:03:32.513Z,74.60
2017-09-24T17:06:00.761Z,75.40
2017-09-24T17:08:29.001Z,76.20
2017-09-24T17:10:56.504Z,76.30
2017-09-24T17:13:24.834Z,76.80
2017-09-24T17:15:52.327Z,76.00
2017-09-24T17:18:19.790Z,76.60
2017-09-24T17:20:47.259Z,76.90
2017-09-24T17:23:15.507Z,77.50
2017-09-24T17:25:43.033Z,77.30
2017-09-24T17:28:10.889Z,77.70
2017-09-24T17:30:38.395Z,77.80
2017-09-24T17:33:05.867Z,77.90
2017-09-24T17:35:33.342Z,78.10
2017-09-24T17:38:01.645Z,78.60
2017-09-24T17:40:29.113Z,78.60
2017-09-24T17:42:56.578Z,78.60
2017-09-24T17:45:24.041Z,78.50
2017-09-24T17:47:51.508Z,78.50
2017-09-24T17:50:18.973Z,78.90
2017-09-24T17:52:46.436Z,79.20
2017-09-24T17:55:14.086Z,79.10
2017-09-24T17:57:41.552Z,79.40
2017-09-24T18:00:09.053Z,79.60
2017-09-24T18:02:36.520Z,79.50
2017-09-24T18:05:04.076Z,80.00
2017-09-24T18:07:31.563Z,80.20
2017-09-24T18:09:59.026Z,79.90
2017-09-24T18:12:26.517Z,80.20
2017-09-24T18:14:53.974Z,80.20
2017-09-24T18:17:22.208Z,80.00
2017-09-24T18:19:49.741Z,80.00
2017-09-24T18:22:17.206Z,80.20
2017-09-24T18:24:44.681Z,80.00
2017-09-24T18:27:13.149Z,80.30
2017-09-24T18:29:40.614Z,80.40
2017-09-24T18:32:08.088Z,80.40
2017-09-24T18:34:35.561Z,80.50
2017-09-24T18:37:03.789Z,80.60
2017-09-24T18:39:31.264Z,80.60
2017-09-24T18:41:58.738Z,80.60
2017-09-24T18:44:26.225Z,80.70
2017-09-24T18:46:53.718Z,81.00
2017-09-24T18:49:21.182Z,81.30
2017-09-24T18:51:48.720Z,81.30
2017-09-24T18:54:16.301Z,81.20
2017-09-24T18:56:43.785Z,81.20
2017-09-24T18:59:11.290Z,81.40
2017-09-24T19:01:38.752Z,81.20
2017-09-24T19:04:06.223Z,81.30
2017-09-24T19:06:33.688Z,81.70
2017-09-24T19:09:01.163Z,81.60
2017-09-24T19:11:29.185Z,81.60
2017-09-24T19:13:56.648Z,81.50
2017-09-24T19:16:24.257Z,81.80
2017-09-24T19:18:51.844Z,81.70
2017-09-24T19:21:19.338Z,82.10
2017-09-24T19:23:46.797Z,82.00
2017-09-24T19:26:14.264Z,82.00
2017-09-24T19:28:41.838Z,81.80
2017-09-24T19:31:09.326Z,81.50
2017-09-24T19:33:37.565Z,81.70
2017-09-24T19:36:05.033Z,81.70
2017-09-24T19:38:32.514Z,81.50
2017-09-24T19:40:59.999Z,81.50
2017-09-24T19:43:27.472Z,81.70
2017-09-24T19:45:55.865Z,81.40
2017-09-24T19:48:23.387Z,81.50
2017-09-24T19:50:50.869Z,81.60
2017-09-24T19:53:18.362Z,81.60
2017-09-24T19:55:46.588Z,81.70
2017-09-24T19:58:14.057Z,81.60
2017-09-24T20:00:41.652Z,81.80
2017-09-24T20:03:10.284Z,81.80
2017-09-24T20:05:37.843Z,81.80
2017-09-24T20:08:05.365Z,81.90
2017-09-24T20:10:33.598Z,81.50
2017-09-24T20:13:01.059Z,81.50
2017-09-24T20:15:28.605Z,81.50
2017-09-24T20:17:56.103Z,81.70
2017-09-24T20:20:24.357Z,82.50
2017-09-24T20:22:51.833Z,81.70
2017-09-24T20:25:20.065Z,81.90
2017-09-24T20:27:47.577Z,81.80
2017-09-24T20:30:15.182Z,82.20
2017-09-24T20:32:42.646Z,82.80
2017-09-24T20:35:10.177Z,82.20
2017-09-24T20:37:37.641Z,82.20
2017-09-24T20:40:05.109Z,82.20
2017-09-24T20:42:32.658Z,82.40
2017-09-24T20:45:00.117Z,82.20
2017-09-24T20:47:27.649Z,82.20
2017-09-24T20:49:55.178Z,82.40
2017-09-24T20:52:23.437Z,82.50
2017-09-24T20:54:51.674Z,82.50
2017-09-24T20:57:19.346Z,82.50
2017-09-24T20:59:46.815Z,82.50
2017-09-24T21:02:14.292Z,82.20
2017-09-24T21:04:41.760Z,82.40
2017-09-24T21:07:12.212Z,82.50
2017-09-24T21:09:39.764Z,82.50
2017-09-24T21:12:07.997Z,82.40
2017-09-24T21:14:35.452Z,82.40
2017-09-24T21:17:02.929Z,82.50
2017-09-24T21:19:30.393Z,82.50
2017-09-24T21:21:58.634Z,82.80
2017-09-24T21:24:26.166Z,82.60
2017-09-24T21:26:53.642Z,82.70
2017-09-24T21:29:21.869Z,82.70
2017-09-24T21:31:50.248Z,82.70
2017-09-24T21:34:18.550Z,82.80
2017-09-24T21:36:46.012Z,82.70
2017-09-24T21:39:13.498Z,82.90
2017-09-24T21:41:40.957Z,83.00
2017-09-24T21:44:08.431Z,82.90
2017-09-24T21:46:35.901Z,82.80
2017-09-24T21:49:04.136Z,83.00
2017-09-24T21:51:31.608Z,82.80
2017-09-24T21:53:59.081Z,83.00
2017-09-24T21:56:27.306Z,83.20
2017-09-24T21:58:54.783Z,83.00
2017-09-24T22:01:22.252Z,83.20
2017-09-24T22:03:49.734Z,83.30
2017-09-24T22:06:17.966Z,83.30
2017-09-24T22:08:46.201Z,83.20
2017-09-24T22:11:13.673Z,83.20
2017-09-24T22:13:41.141Z,83.20
2017-09-24T22:16:08.607Z,83.10
2017-09-24T22:18:36.089Z,83.10
2017-09-24T22:21:03.549Z,83.00
2017-09-24T22:23:31.012Z,82.80
2017-09-24T22:25:58.473Z,82.80
2017-09-24T22:28:26.790Z,83.00
2017-09-24T22:30:54.259Z,82.90
2017-09-24T22:33:21.762Z,83.00
2017-09-24T22:35:50.003Z,82.80
2017-09-24T22:38:17.461Z,82.80
2017-09-24T22:40:44.953Z,82.90
2017-09-24T22:43:12.428Z,82.90
2017-09-24T22:45:39.910Z,82.70
2017-09-24T22:48:07.373Z,82.70
2017-09-24T22:50:34.853Z,82.70
2017-09-24T22:53:02.325Z,82.80
2017-09-24T22:55:29.789Z,82.90
2017-09-24T22:57:57.266Z,83.00
2017-09-24T23:00:25.517Z,83.00
2017-09-24T23:02:52.984Z,83.00
2017-09-24T23:05:21.226Z,83.50
2017-09-24T23:07:48.711Z,83.50
2017-09-24T23:10:16.949Z,83.60
2017-09-24T23:12:44.416Z,83.60
2017-09-24T23:15:12.063Z,83.70
2017-09-24T23:17:39.532Z,83.80
2017-09-24T23:20:07.012Z,83.70
2017-09-24T23:22:34.469Z,83.70
2017-09-24T23:25:01.972Z,83.70
2017-09-24T23:27:29.433Z,83.70
2017-09-24T23:29:56.988Z,83.80
2017-09-24T23:32:24.449Z,84.10
2017-09-24T23:34:51.921Z,84.10
2017-09-24T23:37:19.386Z,84.30
2017-09-24T23:39:46.853Z,84.30
2017-09-24T23:42:14.317Z,84.30
2017-09-24T23:44:41.788Z,84.00
2017-09-24T23:47:09.260Z,84.00
2017-09-24T23:49:37.489Z,84.20
2017-09-24T23:52:04.962Z,84.10
2017-09-24T23:54:32.425Z,84.30
2017-09-24T23:56:59.884Z,84.30
2017-09-24T23:59:28.113Z,84.30
